Time;durP1;ratioP1;P1;durP2;ratioP2;P2;SDS_P1;SDS_P2;PMS_P1;PMS_P2;Temp;Humidity;BMP_temperature;BMP_pressure;BME280_temperature;BME280_humidity;BME280_pressure;Samples;Min_cycle;Max_cycle;Signal;HPM_P1;HPM_P2
2023/10/20 00:00:30;;;;;;;34.30;19.40;;;9.60;99.90;;;;;;4352057;28;658499;-64
2023/10/20 00:03:18;;;;;;;39.23;19.77;;;9.70;99.90;;;;;;4357518;28;657969;-66
2023/10/20 00:06:05;;;;;;;40.10;19.67;;;9.70;99.90;;;;;;4370564;28;659246;-64
2023/10/20 00:08:52;;;;;;;30.10;18.97;;;9.80;99.90;;;;;;4352332;28;657527;-66
2023/10/20 00:11:42;;;;;;;33.33;18.63;;;9.70;99.90;;;;;;4372228;28;658754;-65
2023/10/20 00:14:29;;;;;;;33.70;18.50;;;9.80;99.90;;;;;;4348648;28;659160;-64
2023/10/20 00:17:16;;;;;;;36.00;19.70;;;9.70;99.90;;;;;;4371437;28;657251;-64
2023/10/20 00:20:04;;;;;;;35.17;18.27;;;9.70;99.90;;;;;;4352686;28;658334;-65
2023/10/20 00:22:51;;;;;;;33.37;18.20;;;9.70;99.90;;;;;;4370492;28;660287;-65
2023/10/20 00:25:39;;;;;;;35.93;19.77;;;9.70;99.90;;;;;;4348300;28;658725;-66
2023/10/20 00:28:27;;;;;;;37.37;19.67;;;9.70;99.90;;;;;;4371665;28;657678;-64
2023/10/20 00:31:16;;;;;;;30.40;17.67;;;9.70;99.90;;;;;;4345052;28;658272;-64
2023/10/20 00:34:04;;;;;;;30.90;18.27;;;9.70;99.90;;;;;;4347975;28;657690;-66
2023/10/20 00:36:51;;;;;;;31.43;17.27;;;9.80;99.90;;;;;;4373743;28;657558;-65
2023/10/20 00:39:38;;;;;;;32.33;18.37;;;9.80;99.90;;;;;;4347748;28;657630;-65
2023/10/20 00:42:25;;;;;;;35.20;19.13;;;9.80;99.90;;;;;;4368296;28;658794;-65
2023/10/20 00:45:14;;;;;;;33.90;19.27;;;9.80;99.90;;;;;;4342540;28;657524;-65
2023/10/20 00:48:01;;;;;;;34.27;19.00;;;9.90;99.90;;;;;;4371686;28;657528;-65
2023/10/20 00:50:49;;;;;;;30.63;17.27;;;10.00;99.90;;;;;;4349494;28;657876;-65
2023/10/20 00:53:36;;;;;;;32.00;18.00;;;9.90;99.90;;;;;;4372733;28;658759;-64
2023/10/20 00:56:23;;;;;;;31.00;17.87;;;9.90;99.90;;;;;;4350867;28;657620;-65
2023/10/20 00:59:11;;;;;;;39.40;19.23;;;9.90;99.90;;;;;;4375119;28;657443;-65
2023/10/20 01:01:59;;;;;;;34.10;18.40;;;9.90;99.90;;;;;;4351818;28;657706;-65
2023/10/20 01:04:46;;;;;;;33.70;18.60;;;9.90;99.90;;;;;;4370111;28;657844;-65
2023/10/20 01:07:34;;;;;;;30.88;17.23;;;9.90;99.90;;;;;;4349525;28;658229;-64
2023/10/20 01:10:22;;;;;;;29.42;17.00;;;9.90;99.90;;;;;;4369823;28;659900;-64
2023/10/20 01:13:09;;;;;;;33.73;19.43;;;9.90;99.90;;;;;;4349342;28;657655;-64
2023/10/20 01:15:56;;;;;;;33.63;18.43;;;9.90;99.90;;;;;;4367644;28;657209;-64
2023/10/20 01:18:45;;;;;;;35.53;17.93;;;10.00;99.90;;;;;;4344604;28;658615;-64
2023/10/20 01:21:32;;;;;;;30.17;17.57;;;10.00;99.90;;;;;;4354155;28;659031;-65
2023/10/20 01:24:21;;;;;;;33.67;17.47;;;10.10;99.90;;;;;;4372642;28;659038;-64
2023/10/20 01:27:08;;;;;;;36.13;21.10;;;10.10;99.90;;;;;;4347926;28;659185;-64
2023/10/20 01:29:55;;;;;;;39.05;22.13;;;10.20;99.90;;;;;;4369624;28;659257;-64
2023/10/20 01:32:43;;;;;;;32.57;19.50;;;10.20;99.90;;;;;;4348690;28;658642;-65
2023/10/20 01:35:30;;;;;;;33.75;19.38;;;10.30;99.90;;;;;;4367563;28;659570;-64
2023/10/20 01:38:17;;;;;;;36.40;19.83;;;10.30;99.90;;;;;;4350614;28;658789;-66
2023/10/20 01:41:06;;;;;;;35.13;18.73;;;10.30;99.90;;;;;;4370430;28;659699;-64
2023/10/20 01:43:54;;;;;;;29.27;17.10;;;10.20;99.90;;;;;;4344605;28;658478;-64
2023/10/20 01:46:48;;;;;;;31.10;17.57;;;10.20;99.90;;;;;;4372242;28;659093;-64
2023/10/20 01:49:35;;;;;;;32.63;18.93;;;10.20;99.90;;;;;;4350897;28;659512;-66
2023/10/20 01:52:23;;;;;;;49.00;25.40;;;10.20;99.90;;;;;;4352263;28;658822;-65
2023/10/20 01:55:10;;;;;;;32.83;18.43;;;10.30;99.90;;;;;;4369613;28;660261;-64
2023/10/20 01:57:59;;;;;;;36.90;19.65;;;10.20;99.90;;;;;;4354408;28;658861;-66
2023/10/20 02:00:49;;;;;;;65.23;31.97;;;10.20;99.90;;;;;;4369073;28;658994;-65
2023/10/20 02:03:36;;;;;;;66.07;30.23;;;10.20;99.90;;;;;;4345933;28;658865;-64
2023/10/20 02:06:23;;;;;;;50.47;26.30;;;10.20;99.90;;;;;;4352939;28;659370;-64
2023/10/20 02:09:11;;;;;;;59.00;30.10;;;10.20;99.90;;;;;;4370037;28;659539;-64
2023/10/20 02:11:58;;;;;;;59.03;31.23;;;10.20;99.90;;;;;;4351320;28;659117;-66
2023/10/20 02:14:47;;;;;;;51.17;26.63;;;10.30;99.90;;;;;;4372651;28;659347;-66
2023/10/20 02:17:35;;;;;;;46.43;24.83;;;10.40;99.90;;;;;;4346487;28;658636;-64
2023/10/20 02:20:24;;;;;;;35.13;17.77;;;10.40;99.90;;;;;;4365815;28;658202;-66
2023/10/20 02:23:12;;;;;;;38.07;19.87;;;10.40;99.90;;;;;;4371505;28;658447;-64
2023/10/20 02:25:59;;;;;;;39.97;22.20;;;10.40;99.90;;;;;;4347259;28;659079;-64
2023/10/20 02:28:47;;;;;;;35.20;20.93;;;10.40;99.90;;;;;;4374801;28;658627;-65
2023/10/20 02:31:35;;;;;;;38.17;20.60;;;10.50;99.90;;;;;;4347272;28;659525;-64
2023/10/20 02:34:23;;;;;;;37.03;20.07;;;10.60;99.90;;;;;;4352056;28;659754;-65
2023/10/20 02:37:12;;;;;;;34.30;18.73;;;10.60;99.90;;;;;;4367131;28;658018;-64
2023/10/20 02:39:59;;;;;;;36.13;19.43;;;10.70;99.90;;;;;;4347760;28;659258;-64
2023/10/20 02:42:46;;;;;;;31.63;19.00;;;10.70;99.90;;;;;;4365191;28;659312;-65
2023/10/20 02:45:33;;;;;;;35.80;19.20;;;10.60;99.90;;;;;;4344183;28;659225;-64
2023/10/20 02:48:22;;;;;;;32.03;18.83;;;10.60;99.90;;;;;;4370367;28;659511;-64
2023/10/20 02:51:10;;;;;;;31.23;17.90;;;10.70;99.90;;;;;;4350124;28;659063;-64
2023/10/20 02:53:57;;;;;;;28.93;18.03;;;10.60;99.90;;;;;;4360037;28;658778;-66
2023/10/20 02:56:44;;;;;;;26.33;16.00;;;10.60;99.90;;;;;;4371521;28;658829;-64
2023/10/20 02:59:32;;;;;;;25.03;15.43;;;10.50;99.90;;;;;;4369483;28;658324;-64
2023/10/20 03:02:20;;;;;;;38.80;19.97;;;10.40;99.90;;;;;;4355243;28;658997;-64
2023/10/20 03:05:09;;;;;;;35.50;21.27;;;10.30;99.90;;;;;;4363922;28;661291;-67
2023/10/20 03:07:58;;;;;;;34.90;21.07;;;10.30;99.90;;;;;;4368395;28;658342;-64
2023/10/20 03:10:45;;;;;;;28.90;17.60;;;10.20;99.90;;;;;;4342468;28;659692;-64
2023/10/20 03:13:32;;;;;;;29.33;17.90;;;10.20;99.90;;;;;;4364581;28;658792;-66
2023/10/20 03:16:20;;;;;;;31.23;17.77;;;10.10;99.90;;;;;;4374138;28;658451;-64
2023/10/20 03:19:07;;;;;;;31.73;18.97;;;10.10;99.90;;;;;;4367619;28;659190;-66
2023/10/20 03:21:57;;;;;;;34.70;19.00;;;10.20;99.90;;;;;;4363222;28;658279;-64
2023/10/20 03:24:45;;;;;;;33.27;18.97;;;10.20;99.90;;;;;;4346837;28;659806;-64
2023/10/20 03:27:32;;;;;;;33.47;18.40;;;10.30;99.90;;;;;;4361888;28;658763;-66
2023/10/20 03:30:20;;;;;;;35.93;19.17;;;10.40;99.90;;;;;;4373836;28;659455;-64
2023/10/20 03:33:08;;;;;;;32.73;19.10;;;10.40;99.90;;;;;;4362440;28;658623;-66
2023/10/20 03:36:01;;;;;;;31.10;18.67;;;10.50;99.90;;;;;;4362890;28;660700;-65
2023/10/20 03:38:50;;;;;;;34.77;19.83;;;10.60;99.90;;;;;;4335154;28;662089;-65
2023/10/20 03:41:38;;;;;;;36.73;18.93;;;10.60;99.90;;;;;;4337613;28;658668;-66
2023/10/20 03:44:25;;;;;;;30.60;19.20;;;10.60;99.90;;;;;;4360526;28;659874;-65
2023/10/20 03:47:13;;;;;;;33.37;18.90;;;10.70;99.90;;;;;;4337148;28;658310;-67
2023/10/20 03:50:01;;;;;;;36.00;19.07;;;10.70;99.90;;;;;;4354547;28;659289;-66
2023/10/20 03:52:48;;;;;;;31.57;19.10;;;10.80;99.90;;;;;;4338444;28;658573;-66
2023/10/20 03:55:37;;;;;;;32.03;18.40;;;10.80;99.90;;;;;;4356072;28;659087;-64
2023/10/20 03:58:24;;;;;;;33.93;18.80;;;10.90;99.90;;;;;;4336198;28;658897;-65
2023/10/20 04:01:11;;;;;;;32.57;18.10;;;10.90;99.90;;;;;;4358292;28;659095;-64
2023/10/20 04:03:58;;;;;;;33.67;18.73;;;10.90;99.90;;;;;;4336755;28;658841;-64
2023/10/20 04:06:45;;;;;;;32.97;18.97;;;10.90;99.90;;;;;;4354859;28;659736;-64
2023/10/20 04:09:33;;;;;;;32.07;17.70;;;11.00;99.90;;;;;;4336290;28;658992;-66
2023/10/20 04:12:21;;;;;;;29.10;17.57;;;11.00;99.90;;;;;;4353649;28;659547;-64
2023/10/20 04:15:14;;;;;;;31.07;17.30;;;11.10;99.90;;;;;;4337248;28;658910;-64
2023/10/20 04:18:02;;;;;;;28.30;16.10;;;11.00;99.90;;;;;;4331200;28;658884;-65
2023/10/20 04:20:49;;;;;;;28.70;16.67;;;11.00;99.90;;;;;;4335524;28;660548;-65
2023/10/20 04:23:36;;;;;;;32.70;17.37;;;11.00;99.90;;;;;;4350742;28;659341;-64
2023/10/20 04:26:24;;;;;;;31.70;17.23;;;11.00;99.90;;;;;;4339532;28;658501;-64
2023/10/20 04:29:34;;;;;;;29.67;16.00;;;11.00;99.90;;;;;;4356108;28;662321;-64
2023/10/20 04:41:58;;;;;;;25.77;14.82;;;11.10;99.90;;;;;;4344210;28;658482;-64
2023/10/20 04:51:14;;;;;;;22.53;13.70;;;11.30;99.90;;;;;;4338182;28;659310;-64
2023/10/20 04:54:07;;;;;;;21.07;13.20;;;11.40;99.90;;;;;;4338454;28;659456;-64
2023/10/20 05:00:31;;;;;;;25.90;14.57;;;11.50;99.90;;;;;;4321574;28;659160;-64
2023/10/20 05:06:22;;;;;;;22.13;13.47;;;11.50;99.90;;;;;;4356851;28;658414;-66
2023/10/20 05:09:13;;;;;;;18.10;11.83;;;11.50;99.90;;;;;;4349000;28;659416;-65
2023/10/20 05:12:00;;;;;;;18.80;12.27;;;11.70;99.90;;;;;;4339415;28;660095;-65
2023/10/20 05:14:49;;;;;;;20.03;12.53;;;11.70;99.90;;;;;;4342515;28;659184;-66
2023/10/20 05:17:38;;;;;;;84.82;47.58;;;11.70;99.90;;;;;;4360978;28;659494;-65
2023/10/20 05:20:25;;;;;;;23.60;13.80;;;11.60;99.90;;;;;;4343076;28;659307;-65
2023/10/20 05:23:14;;;;;;;20.23;12.53;;;11.70;99.90;;;;;;4345116;28;659734;-66
2023/10/20 05:26:02;;;;;;;24.17;14.30;;;11.80;99.90;;;;;;4362925;28;658586;-70
2023/10/20 05:28:49;;;;;;;27.37;15.17;;;11.70;99.90;;;;;;4346402;28;659605;-71
2023/10/20 05:31:36;;;;;;;24.87;13.20;;;11.70;99.90;;;;;;4363869;28;658872;-70
2023/10/20 05:34:25;;;;;;;27.30;15.63;;;11.80;99.90;;;;;;4346379;28;659278;-70
2023/10/20 05:37:13;;;;;;;27.90;14.83;;;11.80;99.90;;;;;;4367616;28;659362;-69
2023/10/20 05:40:00;;;;;;;27.73;15.03;;;11.70;99.90;;;;;;4363064;28;660470;-70
2023/10/20 05:42:47;;;;;;;35.37;15.70;;;11.70;99.90;;;;;;4351577;28;658653;-70
2023/10/20 05:45:39;;;;;;;25.37;14.27;;;11.70;99.90;;;;;;4363695;28;660203;-70
2023/10/20 05:48:26;;;;;;;28.23;14.53;;;11.80;99.90;;;;;;4343336;28;658658;-71
2023/10/20 05:51:15;;;;;;;27.80;13.80;;;11.80;99.90;;;;;;4346071;28;659711;-71
2023/10/20 05:54:03;;;;;;;27.23;14.07;;;11.80;99.90;;;;;;4361430;28;658481;-70
2023/10/20 05:56:51;;;;;;;35.17;22.00;;;11.80;99.90;;;;;;4370370;28;659619;-71
2023/10/20 05:59:40;;;;;;;29.33;18.83;;;11.80;99.90;;;;;;4341616;28;659127;-70
2023/10/20 06:02:28;;;;;;;26.23;14.67;;;11.90;99.90;;;;;;4341931;28;658992;-71
2023/10/20 06:05:15;;;;;;;26.40;13.87;;;12.00;99.90;;;;;;4371593;28;660228;-71
2023/10/20 06:08:04;;;;;;;21.37;12.73;;;11.90;99.90;;;;;;4353082;28;659375;-70
2023/10/20 06:10:52;;;;;;;23.30;12.40;;;11.90;99.90;;;;;;4368392;28;659238;-71
2023/10/20 06:13:39;;;;;;;22.07;11.80;;;12.10;99.90;;;;;;4337677;28;659144;-71
2023/10/20 06:16:26;;;;;;;22.60;14.02;;;12.10;99.90;;;;;;4359521;28;659238;-70
2023/10/20 06:19:15;;;;;;;22.77;12.67;;;12.20;99.90;;;;;;4341936;28;658987;-70
2023/10/20 06:22:03;;;;;;;24.37;14.50;;;12.20;99.90;;;;;;4355401;28;658492;-71
2023/10/20 06:24:51;;;;;;;20.97;13.07;;;12.20;99.90;;;;;;4369709;28;659699;-71
2023/10/20 06:27:40;;;;;;;20.70;12.60;;;12.30;99.90;;;;;;4344473;28;658832;-70
2023/10/20 06:30:27;;;;;;;20.27;12.67;;;12.30;99.90;;;;;;4355905;28;658958;-70
2023/10/20 06:33:18;;;;;;;20.13;12.00;;;12.40;99.90;;;;;;4368046;28;659791;-70
2023/10/20 06:36:10;;;;;;;17.63;10.53;;;12.60;99.90;;;;;;4342816;28;659147;-70
2023/10/20 06:38:58;;;;;;;18.47;11.83;;;12.60;99.90;;;;;;4324172;28;658660;-70
2023/10/20 06:41:46;;;;;;;14.87;9.80;;;12.60;99.90;;;;;;4359430;28;659812;-70
2023/10/20 06:44:34;;;;;;;17.95;10.55;;;12.70;99.90;;;;;;4346110;28;658082;-70
2023/10/20 06:47:22;;;;;;;16.87;10.53;;;12.80;99.90;;;;;;4359730;28;658344;-70
2023/10/20 06:50:10;;;;;;;18.33;10.97;;;13.00;99.90;;;;;;4343014;28;660523;-70
2023/10/20 06:52:58;;;;;;;17.47;10.10;;;13.20;99.90;;;;;;4346272;28;658945;-70
2023/10/20 06:55:46;;;;;;;17.40;10.03;;;13.40;99.90;;;;;;4370949;28;659292;-70
2023/10/20 06:58:35;;;;;;;14.80;9.40;;;13.60;99.90;;;;;;4344260;28;658832;-70
2023/10/20 07:01:22;;;;;;;16.33;10.33;;;13.80;99.90;;;;;;4348345;28;657971;-70
2023/10/20 07:04:10;;;;;;;17.50;10.83;;;13.90;99.90;;;;;;4366653;28;660242;-70
2023/10/20 07:06:57;;;;;;;24.73;13.00;;;13.90;99.90;;;;;;4367747;28;658509;-70
2023/10/20 07:09:45;;;;;;;14.03;9.53;;;13.90;99.90;;;;;;4364202;28;660155;-70
2023/10/20 07:12:32;;;;;;;17.07;10.13;;;13.90;99.90;;;;;;4354582;28;657910;-70
2023/10/20 07:15:21;;;;;;;25.70;14.70;;;13.90;99.90;;;;;;4371594;28;658865;-71
2023/10/20 07:18:11;;;;;;;17.53;10.30;;;14.00;99.90;;;;;;4352846;28;658687;-70
2023/10/20 07:20:59;;;;;;;13.93;8.77;;;14.00;99.90;;;;;;4345280;28;658976;-70
2023/10/20 07:23:46;;;;;;;13.47;8.43;;;14.10;99.90;;;;;;4364431;28;658463;-70
2023/10/20 07:26:34;;;;;;;12.47;8.43;;;14.20;99.90;;;;;;4344896;28;657772;-70
2023/10/20 07:29:21;;;;;;;12.70;8.27;;;14.20;99.90;;;;;;4369374;28;657494;-71
2023/10/20 07:32:12;;;;;;;17.67;9.50;;;14.40;99.90;;;;;;4344987;28;657927;-70
2023/10/20 07:35:00;;;;;;;13.27;8.67;;;14.40;99.90;;;;;;4343221;28;657891;-70
2023/10/20 07:37:47;;;;;;;15.10;8.90;;;14.50;99.90;;;;;;4347650;28;657923;-70
2023/10/20 07:40:37;;;;;;;18.47;11.17;;;14.60;99.90;;;;;;4366275;28;659181;-71
2023/10/20 07:43:24;;;;;;;19.63;10.37;;;14.70;99.90;;;;;;4345988;28;660773;-71
2023/10/20 07:46:15;;;;;;;16.83;9.17;;;14.70;99.90;;;;;;4362726;28;661593;-70
2023/10/20 07:49:05;;;;;;;21.83;10.30;;;14.80;99.90;;;;;;4319023;28;658199;-70
2023/10/20 07:51:53;;;;;;;18.80;8.90;;;14.90;99.90;;;;;;4363038;28;658415;-70
2023/10/20 07:54:40;;;;;;;16.63;9.23;;;15.00;99.90;;;;;;4365950;28;659193;-70
2023/10/20 07:57:27;;;;;;;17.40;8.70;;;15.00;99.90;;;;;;4357542;28;657583;-70
2023/10/20 08:00:17;;;;;;;14.30;8.53;;;15.10;99.90;;;;;;4369585;28;658459;-70
2023/10/20 08:03:05;;;;;;;17.43;10.00;;;15.10;99.90;;;;;;4343763;28;659449;-70
2023/10/20 08:05:54;;;;;;;22.20;11.80;;;15.10;99.90;;;;;;4352224;28;659281;-70
2023/10/20 08:08:41;;;;;;;21.37;11.43;;;15.10;99.90;;;;;;4367324;28;658379;-70
2023/10/20 08:11:28;;;;;;;12.77;8.10;;;15.10;99.90;;;;;;4347141;28;658462;-70
2023/10/20 08:14:15;;;;;;;11.87;7.60;;;15.10;99.90;;;;;;4363929;28;658240;-70
2023/10/20 08:17:07;;;;;;;39.90;15.90;;;15.00;99.90;;;;;;4346797;28;657655;-70
2023/10/20 08:19:55;;;;;;;17.43;9.70;;;14.90;99.90;;;;;;4342998;28;660183;-70
2023/10/20 08:22:44;;;;;;;15.47;8.27;;;14.90;99.90;;;;;;4357190;28;657541;-70
2023/10/20 08:25:31;;;;;;;17.33;9.93;;;14.90;99.90;;;;;;4369662;28;657956;-70
2023/10/20 08:28:18;;;;;;;16.77;8.97;;;14.80;99.90;;;;;;4348679;28;657361;-70
2023/10/20 08:31:07;;;;;;;18.43;10.63;;;14.70;99.90;;;;;;4365426;28;657942;-70
2023/10/20 08:33:54;;;;;;;22.50;11.27;;;14.60;99.90;;;;;;4339240;28;660488;-70
2023/10/20 08:36:41;;;;;;;24.20;11.60;;;14.60;99.90;;;;;;4372657;28;659423;-70
2023/10/20 08:39:30;;;;;;;20.85;11.60;;;14.60;99.90;;;;;;4350255;28;658772;-70
2023/10/20 08:42:18;;;;;;;21.53;11.27;;;14.70;99.90;;;;;;4343122;28;659282;-70
2023/10/20 08:45:08;;;;;;;18.30;9.63;;;14.70;99.90;;;;;;4369693;28;658733;-70
2023/10/20 08:47:55;;;;;;;21.63;10.77;;;14.90;99.90;;;;;;4342478;28;658300;-70
2023/10/20 08:50:42;;;;;;;18.43;9.70;;;15.00;99.90;;;;;;4341333;28;658604;-70
2023/10/20 08:53:30;;;;;;;19.83;10.00;;;15.00;99.90;;;;;;4366039;28;657916;-70
2023/10/20 08:56:19;;;;;;;17.50;9.13;;;15.10;99.90;;;;;;4364712;28;658697;-70
2023/10/20 08:59:06;;;;;;;16.27;8.30;;;15.10;99.90;;;;;;4376263;28;658056;-70
2023/10/20 09:01:53;;;;;;;16.10;8.10;;;15.20;99.90;;;;;;4348471;28;658381;-70
2023/10/20 09:04:42;;;;;;;16.20;7.60;;;15.30;99.90;;;;;;4360410;28;658744;-70
2023/10/20 09:07:31;;;;;;;16.47;9.13;;;15.20;99.90;;;;;;4346149;28;658448;-70
2023/10/20 09:10:18;;;;;;;18.83;9.53;;;15.20;99.90;;;;;;4346385;28;657590;-70
2023/10/20 09:13:08;;;;;;;18.17;9.07;;;15.20;99.90;;;;;;4374111;28;658427;-70
2023/10/20 09:15:55;;;;;;;17.17;8.43;;;15.20;99.90;;;;;;4349617;28;658975;-70
2023/10/20 09:18:46;;;;;;;17.23;8.60;;;15.30;99.90;;;;;;4359963;28;657511;-69
2023/10/20 09:21:34;;;;;;;15.63;8.70;;;15.30;99.90;;;;;;4346714;28;657603;-70
2023/10/20 09:24:21;;;;;;;16.93;8.70;;;15.30;99.90;;;;;;4368500;28;658499;-69
2023/10/20 09:27:08;;;;;;;18.27;8.93;;;15.40;99.90;;;;;;4349617;28;657842;-70
2023/10/20 09:29:57;;;;;;;22.80;10.33;;;15.40;99.90;;;;;;4371646;28;659702;-70
2023/10/20 09:32:44;;;;;;;17.37;8.83;;;15.50;99.90;;;;;;4340306;28;659587;-69
2023/10/20 09:35:31;;;;;;;14.03;8.60;;;15.60;99.90;;;;;;4370105;28;658119;-70
2023/10/20 09:38:18;;;;;;;16.30;8.53;;;15.70;99.90;;;;;;4362322;28;657469;-70
2023/10/20 09:41:11;;;;;;;14.73;10.20;;;15.90;99.90;;;;;;4369286;28;659699;-70
2023/10/20 09:44:05;;;;;;;14.57;7.63;;;16.10;99.90;;;;;;4327210;28;659616;-70
2023/10/20 09:46:55;;;;;;;17.70;7.50;;;16.30;99.90;;;;;;4336877;28;658000;-69
2023/10/20 09:49:42;;;;;;;13.50;7.37;;;16.40;99.90;;;;;;4351155;28;657267;-70
2023/10/20 09:52:30;;;;;;;12.03;7.23;;;16.60;99.90;;;;;;4375961;28;657412;-70
2023/10/20 09:55:19;;;;;;;15.90;7.80;;;16.80;99.90;;;;;;4365019;28;659580;-70
2023/10/20 09:58:06;;;;;;;15.27;7.33;;;17.10;99.90;;;;;;4368359;28;657265;-70
2023/10/20 10:00:55;;;;;;;20.43;8.23;;;17.30;99.90;;;;;;4344682;28;657350;-69
2023/10/20 10:03:48;;;;;;;13.60;7.20;;;17.30;99.90;;;;;;4356696;28;657579;-69
2023/10/20 10:06:36;;;;;;;15.73;7.67;;;17.10;99.90;;;;;;4350796;28;658491;-69
2023/10/20 10:09:23;;;;;;;11.60;6.73;;;17.10;99.90;;;;;;4355988;28;658125;-69
2023/10/20 10:12:14;;;;;;;18.90;7.53;;;17.10;99.90;;;;;;4381864;28;659162;-70
2023/10/20 10:15:05;;;;;;;13.13;8.00;;;17.10;99.90;;;;;;4354634;28;657788;-69
2023/10/20 10:17:54;;;;;;;12.32;7.63;;;17.00;99.90;;;;;;4335288;28;657597;-69
2023/10/20 10:20:45;;;;;;;19.77;7.80;;;17.00;99.90;;;;;;4372389;28;658294;-69
2023/10/20 10:23:33;;;;;;;15.50;8.07;;;17.00;99.90;;;;;;4356601;28;658060;-69
2023/10/20 10:26:21;;;;;;;16.47;8.10;;;17.00;99.90;;;;;;4372457;28;658294;-69
2023/10/20 10:29:08;;;;;;;14.57;7.73;;;17.00;99.90;;;;;;4356230;28;657338;-69
2023/10/20 10:31:55;;;;;;;14.13;8.03;;;17.00;99.90;;;;;;4379213;28;657381;-69
2023/10/20 10:34:43;;;;;;;15.03;7.70;;;17.00;99.90;;;;;;4354683;28;657402;-69
2023/10/20 10:37:33;;;;;;;15.10;7.87;;;17.00;99.90;;;;;;4377360;28;658008;-69
2023/10/20 10:40:22;;;;;;;15.47;7.57;;;16.80;99.90;;;;;;4350328;28;658831;-69
2023/10/20 10:43:13;;;;;;;13.10;8.43;;;16.70;99.90;;;;;;4351770;28;658254;-69
2023/10/20 10:46:01;;;;;;;15.47;7.97;;;16.60;99.90;;;;;;4338350;28;659298;-69
2023/10/20 10:48:48;;;;;;;14.97;8.50;;;16.50;99.90;;;;;;4346096;28;657686;-69
2023/10/20 10:51:43;;;;;;;13.97;8.50;;;16.40;99.90;;;;;;4370626;28;658487;-69
2023/10/20 10:54:33;;;;;;;19.13;8.73;;;16.40;99.90;;;;;;4342848;28;657984;-69
2023/10/20 10:57:20;;;;;;;17.93;8.53;;;16.50;99.90;;;;;;4346391;28;658335;-69
2023/10/20 11:00:09;;;;;;;12.53;7.77;;;16.50;99.90;;;;;;4360064;28;657961;-69
2023/10/20 11:02:57;;;;;;;13.73;8.00;;;16.50;99.90;;;;;;4366039;28;657984;-69
2023/10/20 11:05:44;;;;;;;18.93;8.93;;;16.50;99.90;;;;;;4348100;28;658809;-69
2023/10/20 11:08:32;;;;;;;19.90;9.10;;;16.50;99.90;;;;;;4362553;28;657596;-69
2023/10/20 11:11:21;;;;;;;17.40;8.97;;;16.50;99.90;;;;;;4354340;28;660160;-69
2023/10/20 11:14:08;;;;;;;18.67;8.80;;;16.50;99.90;;;;;;4349413;28;658092;-69
2023/10/20 11:16:55;;;;;;;16.60;9.30;;;16.70;99.90;;;;;;4373416;28;658731;-69
2023/10/20 11:19:42;;;;;;;13.63;8.40;;;16.80;99.90;;;;;;4355073;28;657790;-69
2023/10/20 11:22:38;;;;;;;18.27;8.97;;;16.90;99.90;;;;;;4366008;28;658628;-69
2023/10/20 11:25:25;;;;;;;18.37;8.83;;;17.10;99.90;;;;;;4347097;28;658180;-69
2023/10/20 11:28:14;;;;;;;16.97;8.83;;;17.10;99.90;;;;;;4347209;28;658455;-69
2023/10/20 11:31:01;;;;;;;24.70;13.57;;;17.20;99.90;;;;;;4365363;28;658505;-69
2023/10/20 11:33:49;;;;;;;21.87;10.70;;;17.10;99.90;;;;;;4344040;28;659425;-69
2023/10/20 11:36:37;;;;;;;28.17;12.77;;;17.10;99.90;;;;;;4365144;28;659220;-70
2023/10/20 11:39:27;;;;;;;20.73;10.23;;;17.00;99.90;;;;;;4347741;28;660062;-70
2023/10/20 11:42:14;;;;;;;21.67;11.50;;;17.00;99.90;;;;;;4353108;28;659136;-69
2023/10/20 11:45:03;;;;;;;17.13;8.17;;;16.90;99.90;;;;;;4364334;28;659155;-69
2023/10/20 11:47:51;;;;;;;18.33;8.57;;;16.90;99.90;;;;;;4342903;28;658767;-70
2023/10/20 11:50:38;;;;;;;24.70;10.90;;;16.80;99.90;;;;;;4350583;28;658022;-69
2023/10/20 11:53:25;;;;;;;28.77;13.27;;;16.80;99.90;;;;;;4368157;28;659514;-70
2023/10/20 11:56:12;;;;;;;27.07;12.47;;;16.80;99.90;;;;;;4347417;28;658912;-69
2023/10/20 11:59:00;;;;;;;18.93;9.60;;;17.00;99.90;;;;;;4368155;28;658683;-69
2023/10/20 12:01:49;;;;;;;19.57;9.90;;;17.00;99.90;;;;;;4351640;28;657592;-70
2023/10/20 12:04:36;;;;;;;20.67;9.33;;;17.20;99.90;;;;;;4368290;28;657505;-69
2023/10/20 12:07:23;;;;;;;19.87;9.47;;;17.30;99.90;;;;;;4347044;28;657795;-69
2023/10/20 12:10:12;;;;;;;15.93;9.43;;;17.20;99.90;;;;;;4367532;28;658166;-69
2023/10/20 12:13:02;;;;;;;20.17;10.07;;;17.10;99.90;;;;;;4346854;28;658636;-69
2023/10/20 12:15:49;;;;;;;16.47;9.83;;;17.00;99.90;;;;;;4344457;28;659447;-69
2023/10/20 12:18:38;;;;;;;16.33;8.73;;;17.00;99.90;;;;;;4371718;28;657788;-69
2023/10/20 12:21:25;;;;;;;14.00;8.23;;;17.00;99.90;;;;;;4345787;28;660659;-69
2023/10/20 12:24:12;;;;;;;19.23;9.77;;;17.00;99.90;;;;;;4359788;28;657545;-69
2023/10/20 12:27:00;;;;;;;25.80;14.17;;;16.90;99.90;;;;;;4372592;28;658314;-69
2023/10/20 12:29:48;;;;;;;18.13;10.40;;;17.00;99.90;;;;;;4364392;28;658181;-69
2023/10/20 12:32:36;;;;;;;18.93;9.27;;;17.00;99.90;;;;;;4364621;28;660181;-69
2023/10/20 12:35:25;;;;;;;16.00;8.55;;;17.10;99.90;;;;;;4339396;28;657366;-69
2023/10/20 12:38:13;;;;;;;17.57;10.07;;;17.10;99.90;;;;;;4345765;28;657496;-69
2023/10/20 12:41:00;;;;;;;19.57;10.33;;;17.30;99.90;;;;;;4364127;28;659812;-69
2023/10/20 12:43:48;;;;;;;37.93;15.27;;;17.40;99.90;;;;;;4356879;28;658730;-69
2023/10/20 12:46:36;;;;;;;21.00;10.23;;;17.60;99.90;;;;;;4365771;28;659223;-69
2023/10/20 12:49:23;;;;;;;17.93;10.03;;;17.50;99.90;;;;;;4342874;28;658683;-69
2023/10/20 12:52:12;;;;;;;32.70;13.87;;;17.60;99.90;;;;;;4368556;28;660376;-69
2023/10/20 12:55:00;;;;;;;19.07;10.33;;;17.60;99.90;;;;;;4346279;28;658967;-69
2023/10/20 12:57:47;;;;;;;19.50;9.40;;;17.70;99.90;;;;;;4359402;28;658788;-69
2023/10/20 13:00:35;;;;;;;19.43;9.53;;;17.70;99.90;;;;;;4368906;28;658592;-69
2023/10/20 13:03:23;;;;;;;18.83;9.27;;;17.70;99.90;;;;;;4371725;28;659872;-69
2023/10/20 13:06:10;;;;;;;18.27;9.57;;;17.60;99.90;;;;;;4363212;28;659143;-69
2023/10/20 13:08:59;;;;;;;22.17;10.90;;;17.60;99.90;;;;;;4348072;28;658036;-69
2023/10/20 13:11:46;;;;;;;23.70;12.80;;;17.60;99.90;;;;;;4367164;28;658709;-69
2023/10/20 13:14:34;;;;;;;23.17;11.03;;;17.60;99.90;;;;;;4346565;28;659251;-69
2023/10/20 13:17:21;;;;;;;15.77;9.33;;;17.70;99.90;;;;;;4366397;28;658591;-69
2023/10/20 13:20:11;;;;;;;33.93;14.17;;;17.70;99.90;;;;;;4343958;28;658220;-69
2023/10/20 13:22:58;;;;;;;19.70;10.60;;;17.80;99.90;;;;;;4347683;28;659691;-69
2023/10/20 13:25:47;;;;;;;35.13;15.90;;;17.80;99.90;;;;;;4372276;28;659406;-69
2023/10/20 13:28:35;;;;;;;22.03;11.00;;;17.90;99.90;;;;;;4336658;28;659646;-69
2023/10/20 13:31:22;;;;;;;21.83;11.00;;;17.90;99.90;;;;;;4360136;28;658460;-69
2023/10/20 13:34:10;;;;;;;16.63;8.53;;;18.10;99.90;;;;;;4362463;28;659611;-69
2023/10/20 13:36:57;;;;;;;19.53;9.53;;;18.20;99.90;;;;;;4363033;28;658752;-69
2023/10/20 13:39:45;;;;;;;21.73;8.97;;;18.30;99.90;;;;;;4365167;28;658285;-69
2023/10/20 13:42:34;;;;;;;21.53;9.07;;;18.30;99.90;;;;;;4367127;28;658399;-69
2023/10/20 13:45:21;;;;;;;19.13;9.40;;;18.40;99.90;;;;;;4366886;28;657713;-69
2023/10/20 13:48:08;;;;;;;26.97;9.27;;;18.30;99.90;;;;;;4352790;28;658601;-69
2023/10/20 13:50:56;;;;;;;23.37;10.10;;;18.30;99.90;;;;;;4369599;28;658333;-69
2023/10/20 13:53:43;;;;;;;18.60;10.20;;;18.30;99.90;;;;;;4347975;28;658486;-69
2023/10/20 13:56:30;;;;;;;26.03;9.40;;;18.30;99.90;;;;;;4369592;28;659773;-69
2023/10/20 13:59:20;;;;;;;21.13;9.77;;;18.10;99.90;;;;;;4352584;28;657868;-69
2023/10/20 14:02:08;;;;;;;21.93;8.97;;;18.20;99.90;;;;;;4373850;28;657354;-69
2023/10/20 14:04:55;;;;;;;25.20;9.10;;;18.20;99.90;;;;;;4346740;28;658702;-69
2023/10/20 14:07:42;;;;;;;19.97;8.60;;;18.30;99.90;;;;;;4347948;28;657778;-69
2023/10/20 14:10:31;;;;;;;15.03;8.83;;;18.30;99.90;;;;;;4371203;28;657743;-69
2023/10/20 14:13:18;;;;;;;24.53;8.70;;;18.40;99.90;;;;;;4352089;28;658195;-69
2023/10/20 14:16:07;;;;;;;19.67;9.37;;;18.30;99.90;;;;;;4369889;28;658808;-69
2023/10/20 14:18:55;;;;;;;20.90;7.97;;;18.30;99.90;;;;;;4350770;28;657625;-69
2023/10/20 14:21:42;;;;;;;14.40;8.07;;;18.30;99.90;;;;;;4360868;28;657934;-69
2023/10/20 14:24:30;;;;;;;18.07;8.63;;;18.30;99.90;;;;;;4370641;28;658426;-69
2023/10/20 14:27:17;;;;;;;18.27;9.20;;;18.20;99.90;;;;;;4371444;28;657270;-69